Time;durP1;ratioP1;P1;durP2;ratioP2;P2;SDS_P1;SDS_P2;PMS_P1;PMS_P2;Temp;Humidity;BMP_temperature;BMP_pressure;BME280_temperature;BME280_humidity;BME280_pressure;Samples;Min_cycle;Max_cycle;Signal;HPM_P1;HPM_P2
2023/10/07 00:01:46;;;;;;;9.30;1.60;;;;;;;14.18;69.92;100416.05;110224;1278;22183;-62
2023/10/07 00:04:17;;;;;;;10.20;1.20;;;;;;;14.18;70.11;100407.27;110258;1263;22190;-59
2023/10/07 00:06:49;;;;;;;11.50;1.90;;;;;;;14.17;69.96;100411.66;110197;1270;22974;-60
2023/10/07 00:09:22;;;;;;;9.30;1.40;;;;;;;14.17;69.97;100413.44;110221;1277;22118;-59
2023/10/07 00:11:54;;;;;;;7.80;1.30;;;;;;;14.17;69.90;100420.86;110220;1277;22165;-58
2023/10/07 00:14:30;;;;;;;8.90;1.40;;;;;;;14.19;69.85;100416.52;110223;1277;22277;-60
2023/10/07 00:17:05;;;;;;;9.90;1.80;;;;;;;14.21;69.59;100418.58;110045;1277;22200;-60
2023/10/07 00:19:39;;;;;;;9.80;1.30;;;;;;;14.23;69.62;100415.02;110195;1277;22218;-61
2023/10/07 00:22:13;;;;;;;9.40;1.50;;;;;;;14.26;69.47;100404.41;110240;1277;22156;-59
2023/10/07 00:24:46;;;;;;;7.80;1.20;;;;;;;14.29;69.31;100401.85;110250;1277;22179;-59
2023/10/07 00:27:26;;;;;;;9.20;1.50;;;;;;;14.31;69.35;100399.06;109054;1277;22622;-57
2023/10/07 00:29:59;;;;;;;7.50;1.20;;;;;;;14.33;69.34;100392.49;106959;1273;22546;-58
2023/10/07 00:32:32;;;;;;;8.80;1.80;;;;;;;14.34;69.29;100385.75;109353;1277;25545;-58
2023/10/07 00:35:06;;;;;;;6.90;1.30;;;;;;;14.36;69.21;100382.91;106482;1277;24669;-56
2023/10/07 00:37:38;;;;;;;11.80;1.70;;;;;;;14.37;69.25;100381.09;110220;1267;22288;-59
2023/10/07 00:40:14;;;;;;;9.60;1.30;;;;;;;14.38;69.38;100376.08;110210;1277;22201;-59
2023/10/07 00:42:45;;;;;;;6.10;1.20;;;;;;;14.39;69.24;100371.54;110203;1277;22933;-58
2023/10/07 00:45:17;;;;;;;7.30;1.60;;;;;;;14.38;69.24;100366.95;110256;1277;22231;-59
2023/10/07 00:47:49;;;;;;;7.00;1.50;;;;;;;14.37;69.23;100369.23;110214;1277;23035;-61
2023/10/07 00:50:22;;;;;;;9.60;1.70;;;;;;;14.36;69.21;100369.59;110225;1277;22158;-59
2023/10/07 00:52:58;;;;;;;8.80;1.30;;;;;;;14.35;69.25;100364.22;110234;1277;22319;-60
2023/10/07 00:55:29;;;;;;;6.20;1.00;;;;;;;14.33;69.27;100359.96;110197;1274;22198;-60
2023/10/07 00:58:19;;;;;;;12.20;1.90;;;;;;;14.32;69.26;100360.88;110241;1277;22152;-59
2023/10/07 01:00:55;;;;;;;7.30;1.20;;;;;;;14.31;69.18;100354.04;110220;1274;22229;-58
2023/10/07 01:03:47;;;;;;;6.60;1.30;;;;;;;14.30;69.20;100348.56;110243;1270;22213;-58
2023/10/07 01:06:31;;;;;;;11.30;1.30;;;;;;;14.30;69.10;100345.50;110193;1277;22404;-60
2023/10/07 01:09:14;;;;;;;7.90;1.30;;;;;;;14.30;69.21;100341.27;110205;1277;22174;-61
2023/10/07 01:11:46;;;;;;;10.40;1.20;;;;;;;14.29;69.14;100334.41;110235;1278;22354;-61
2023/10/07 01:14:20;;;;;;;7.70;1.60;;;;;;;14.29;69.06;100326.91;110243;1277;22131;-60
2023/10/07 01:16:52;;;;;;;9.10;1.60;;;;;;;14.29;69.06;100325.52;110219;1275;22231;-61
2023/10/07 01:19:30;;;;;;;8.10;1.20;;;;;;;14.28;69.08;100323.31;110219;1277;22308;-58
2023/10/07 01:22:09;;;;;;;10.10;1.50;;;;;;;14.28;69.21;100323.57;110221;1277;22400;-58
2023/10/07 01:24:46;;;;;;;7.50;1.10;;;;;;;14.29;69.19;100324.66;110241;1277;22246;-61
2023/10/07 01:27:21;;;;;;;8.10;1.60;;;;;;;14.29;69.30;100324.00;110225;1277;22240;-58
2023/10/07 01:29:59;;;;;;;12.20;1.30;;;;;;;14.30;69.32;100320.89;110173;1276;22304;-61
2023/10/07 01:32:33;;;;;;;5.60;1.20;;;;;;;14.32;69.31;100312.58;110205;1266;22202;-58
2023/10/07 01:35:10;;;;;;;7.30;1.20;;;;;;;14.33;69.29;100303.60;110223;1277;22179;-60
2023/10/07 01:37:59;;;;;;;9.60;1.30;;;;;;;14.35;69.36;100305.75;110235;1277;22160;-59
2023/10/07 01:40:34;;;;;;;12.80;1.40;;;;;;;14.37;69.38;100313.42;110203;1277;22275;-59
2023/10/07 01:43:06;;;;;;;9.40;1.30;;;;;;;14.37;69.33;100302.65;110210;1277;22254;-58
2023/10/07 01:45:40;;;;;;;9.50;1.50;;;;;;;14.38;69.30;100294.52;110234;1277;23049;-61
2023/10/07 01:48:11;;;;;;;9.50;1.30;;;;;;;14.38;69.43;100292.54;110249;1277;22158;-61
2023/10/07 01:50:44;;;;;;;9.00;1.20;;;;;;;14.39;69.48;100291.27;110233;1277;22192;-61
2023/10/07 01:53:15;;;;;;;8.70;1.10;;;;;;;14.40;69.69;100287.60;110210;1277;22221;-60
2023/10/07 01:55:46;;;;;;;7.10;1.10;;;;;;;14.40;69.53;100286.42;110272;1276;22253;-61
2023/10/07 01:58:19;;;;;;;11.00;1.40;;;;;;;14.40;69.63;100293.38;110144;1277;22182;-61
2023/10/07 02:00:51;;;;;;;8.80;1.40;;;;;;;14.39;69.78;100295.97;110194;1277;23375;-60
2023/10/07 02:03:23;;;;;;;6.80;1.40;;;;;;;14.38;69.74;100297.54;110222;1271;22450;-60
2023/10/07 02:05:56;;;;;;;9.90;1.20;;;;;;;14.38;69.85;100297.09;110238;1267;22171;-61
2023/10/07 02:08:29;;;;;;;7.60;1.10;;;;;;;14.37;69.91;100297.30;110237;1277;22211;-59
2023/10/07 02:11:00;;;;;;;9.60;1.60;;;;;;;14.37;70.07;100296.11;110249;1277;22390;-60
2023/10/07 02:13:31;;;;;;;8.90;1.40;;;;;;;14.35;70.22;100298.50;110255;1277;22183;-58
2023/10/07 02:16:08;;;;;;;9.20;1.80;;;;;;;14.33;70.20;100300.94;110246;1277;22226;-61
2023/10/07 02:18:44;;;;;;;6.60;1.20;;;;;;;14.32;70.40;100295.16;110236;1277;22264;-59
2023/10/07 02:21:20;;;;;;;5.30;1.10;;;;;;;14.30;70.50;100293.98;110225;1277;22202;-57
2023/10/07 02:23:51;;;;;;;9.60;1.30;;;;;;;14.30;70.54;100289.18;110080;1277;22396;-60
2023/10/07 02:26:23;;;;;;;8.20;1.40;;;;;;;14.30;70.55;100289.85;110217;1274;22326;-59
2023/10/07 02:29:04;;;;;;;5.80;0.90;;;;;;;14.30;70.68;100281.06;110222;1277;22167;-58
2023/10/07 02:31:42;;;;;;;8.30;1.20;;;;;;;14.29;70.73;100280.17;110239;1267;22156;-59
2023/10/07 02:34:28;;;;;;;6.30;1.20;;;;;;;14.28;70.76;100274.70;110208;1277;22250;-58
2023/10/07 02:37:13;;;;;;;8.40;1.30;;;;;;;14.27;70.94;100275.96;110201;1277;22262;-59
2023/10/07 02:39:47;;;;;;;6.90;1.30;;;;;;;14.26;71.03;100272.34;110205;1277;22169;-61
2023/10/07 02:42:23;;;;;;;6.40;1.00;;;;;;;14.27;71.13;100275.51;110208;1277;22817;-60
2023/10/07 02:45:28;;;;;;;11.20;1.60;;;;;;;14.26;71.16;100264.78;110212;1277;22345;-60
2023/10/07 02:47:54;;;;;;;10.30;1.70;;;;;;;14.26;71.27;100258.96;110222;1277;23281;-58
2023/10/07 02:50:26;;;;;;;8.30;1.20;;;;;;;14.25;71.38;100261.30;110216;1271;22226;-60
2023/10/07 02:52:57;;;;;;;9.80;1.30;;;;;;;14.25;71.36;100262.38;110224;1277;22334;-59
2023/10/07 02:55:38;;;;;;;8.40;1.20;;;;;;;14.25;71.56;100261.56;110216;1277;22257;-58
2023/10/07 02:58:09;;;;;;;7.40;1.30;;;;;;;14.26;71.60;100263.10;110228;1277;22226;-59
2023/10/07 03:00:49;;;;;;;8.50;1.80;;;;;;;14.26;71.64;100259.92;110223;1277;22133;-59
2023/10/07 03:03:32;;;;;;;9.60;1.30;;;;;;;14.26;71.81;100254.36;110039;1277;22186;-59
2023/10/07 03:06:06;;;;;;;8.30;1.20;;;;;;;14.26;71.87;100255.08;110217;1277;22412;-60
2023/10/07 03:08:50;;;;;;;8.50;1.70;;;;;;;14.27;71.98;100248.85;110043;1273;22288;-59
2023/10/07 03:11:24;;;;;;;8.40;1.70;;;;;;;14.29;72.09;100250.21;110187;1277;22185;-58
2023/10/07 03:13:58;;;;;;;9.50;1.50;;;;;;;14.30;72.06;100246.85;110255;1272;22327;-60
2023/10/07 03:16:29;;;;;;;6.60;1.20;;;;;;;14.30;72.22;100246.17;110247;1277;22240;-60
2023/10/07 03:19:20;;;;;;;7.90;1.10;;;;;;;14.31;72.24;100251.04;110244;1277;23051;-58
2023/10/07 03:22:07;;;;;;;7.90;1.50;;;;;;;14.30;72.37;100249.55;110220;1277;22221;-57
2023/10/07 03:24:42;;;;;;;9.90;1.60;;;;;;;14.29;72.54;100240.83;110233;1277;22233;-60
2023/10/07 03:27:21;;;;;;;8.60;1.60;;;;;;;14.29;72.56;100245.78;110227;1277;22915;-57
2023/10/07 03:30:12;;;;;;;8.20;1.30;;;;;;;14.28;72.53;100241.92;110021;1276;22166;-58
2023/10/07 03:32:56;;;;;;;6.30;1.40;;;;;;;14.28;72.67;100236.35;110227;1277;22166;-56
2023/10/07 03:36:07;;;;;;;4.30;0.90;;;;;;;14.28;72.69;100242.36;110218;1254;22181;-56
2023/10/07 03:38:38;;;;;;;6.90;1.70;;;;;;;14.26;72.87;100247.73;110221;1277;22124;-58
2023/10/07 03:41:10;;;;;;;11.80;1.50;;;;;;;14.24;72.89;100241.48;110231;1270;22179;-59
2023/10/07 03:43:42;;;;;;;8.20;1.50;;;;;;;14.23;72.94;100243.02;110243;1277;22120;-59
2023/10/07 03:46:15;;;;;;;14.50;1.50;;;;;;;14.23;73.10;100239.75;110247;1270;22321;-55
2023/10/07 03:48:53;;;;;;;11.70;1.50;;;;;;;14.22;73.23;100231.22;110206;1273;22289;-58
2023/10/07 03:51:30;;;;;;;13.20;1.70;;;;;;;14.22;73.27;100232.18;110237;1274;22206;-59
2023/10/07 03:54:09;;;;;;;7.50;1.40;;;;;;;14.21;73.24;100227.55;110051;1277;22212;-58
2023/10/07 03:56:40;;;;;;;6.10;1.30;;;;;;;14.20;73.38;100232.23;110232;1277;22202;-57
2023/10/07 03:59:15;;;;;;;9.50;1.20;;;;;;;14.20;73.45;100231.52;110196;1274;22142;-57
2023/10/07 04:01:45;;;;;;;6.90;1.30;;;;;;;14.20;73.50;100229.21;110229;1277;22257;-57
2023/10/07 04:04:16;;;;;;;7.40;1.20;;;;;;;14.19;73.54;100229.02;110211;1271;22248;-57
2023/10/07 04:06:48;;;;;;;8.60;1.30;;;;;;;14.19;73.63;100226.01;110240;1261;22268;-58
2023/10/07 04:09:27;;;;;;;8.00;1.50;;;;;;;14.18;73.68;100231.05;110181;1274;22156;-57
2023/10/07 04:11:58;;;;;;;10.10;1.60;;;;;;;14.17;73.85;100236.87;110055;1278;22150;-60
2023/10/07 04:14:29;;;;;;;7.60;1.50;;;;;;;14.15;74.02;100241.70;110240;1274;23244;-59
2023/10/07 04:17:06;;;;;;;8.60;1.40;;;;;;;14.13;74.00;100240.58;110238;1277;22180;-57
2023/10/07 04:19:40;;;;;;;7.10;1.30;;;;;;;14.13;74.06;100242.77;110226;1277;22188;-59
2023/10/07 04:22:11;;;;;;;7.50;1.30;;;;;;;14.12;74.23;100238.89;110244;1277;22182;-58
2023/10/07 04:24:44;;;;;;;8.10;1.20;;;;;;;14.12;74.24;100242.56;110236;1277;22189;-58
2023/10/07 04:27:20;;;;;;;7.30;1.20;;;;;;;14.12;74.45;100240.16;110198;1277;22214;-59
2023/10/07 04:29:52;;;;;;;9.30;1.40;;;;;;;14.12;74.45;100235.77;110240;1277;22210;-57
2023/10/07 04:32:23;;;;;;;7.80;1.40;;;;;;;14.12;74.62;100238.08;110259;1277;22169;-59
2023/10/07 04:35:16;;;;;;;8.50;1.60;;;;;;;14.12;74.58;100243.69;110226;1277;22316;-57
2023/10/07 04:37:54;;;;;;;9.00;1.60;;;;;;;14.13;74.56;100240.38;110226;1277;22350;-59
2023/10/07 04:40:53;;;;;;;9.10;1.70;;;;;;;14.13;74.78;100242.40;110201;1277;22166;-58
2023/10/07 04:43:38;;;;;;;8.30;1.20;;;;;;;14.14;74.94;100237.30;110219;1277;22436;-58
2023/10/07 04:46:23;;;;;;;8.10;1.60;;;;;;;14.15;74.84;100232.52;110261;1277;22276;-59
2023/10/07 04:49:00;;;;;;;7.70;1.40;;;;;;;14.16;74.97;100236.96;110204;1277;22141;-56
2023/10/07 04:51:47;;;;;;;10.10;1.50;;;;;;;14.18;75.05;100238.97;110201;1277;22808;-60
2023/10/07 04:54:21;;;;;;;9.20;1.30;;;;;;;14.21;75.23;100242.70;110177;1277;22311;-59
2023/10/07 04:57:00;;;;;;;9.60;1.30;;;;;;;14.23;75.14;100239.34;110198;1277;22271;-58
2023/10/07 04:59:32;;;;;;;11.30;1.40;;;;;;;14.26;75.35;100240.98;110214;1270;22796;-59
2023/10/07 05:02:10;;;;;;;7.50;1.30;;;;;;;14.28;75.43;100242.95;110188;1277;22280;-58
2023/10/07 05:04:48;;;;;;;7.90;1.30;;;;;;;14.31;75.45;100244.88;110237;1277;23033;-57
2023/10/07 05:07:26;;;;;;;8.30;1.30;;;;;;;14.33;75.46;100238.23;110201;1277;22154;-59
2023/10/07 05:09:57;;;;;;;7.70;1.20;;;;;;;14.34;75.55;100238.45;110185;1277;22346;-59
2023/10/07 05:12:31;;;;;;;10.10;1.60;;;;;;;14.36;75.49;100236.10;110201;1277;23138;-59
2023/10/07 05:15:05;;;;;;;6.80;1.20;;;;;;;14.37;75.60;100227.69;110193;1268;22301;-60
2023/10/07 05:17:36;;;;;;;8.90;1.60;;;;;;;14.37;75.56;100231.58;110204;1277;22930;-58
2023/10/07 05:20:26;;;;;;;7.70;1.70;;;;;;;14.38;75.62;100233.11;110166;1277;22277;-59
2023/10/07 05:23:00;;;;;;;9.70;1.50;;;;;;;14.41;75.68;100232.30;110204;1277;22136;-59
2023/10/07 05:25:35;;;;;;;6.70;1.30;;;;;;;14.42;75.69;100235.15;110191;1277;22202;-60
2023/10/07 05:28:10;;;;;;;8.50;1.30;;;;;;;14.43;75.78;100230.11;110172;1274;22179;-60
2023/10/07 05:30:50;;;;;;;8.00;1.20;;;;;;;14.45;75.85;100225.00;110193;1277;22987;-60
2023/10/07 05:33:24;;;;;;;7.90;1.00;;;;;;;14.47;76.00;100224.86;110194;1274;22193;-60
2023/10/07 05:36:03;;;;;;;10.50;1.60;;;;;;;14.48;75.91;100224.60;110198;1277;22344;-60
2023/10/07 05:38:37;;;;;;;8.20;1.10;;;;;;;14.51;75.96;100217.88;110185;1277;22258;-61
2023/10/07 05:41:12;;;;;;;8.60;1.30;;;;;;;14.52;75.96;100224.66;110195;1277;22604;-59
2023/10/07 05:43:44;;;;;;;6.20;1.10;;;;;;;14.54;75.94;100220.43;110076;1278;23045;-59
2023/10/07 05:46:17;;;;;;;9.80;1.40;;;;;;;14.56;75.93;100219.41;110188;1277;23027;-58
2023/10/07 05:48:51;;;;;;;6.90;1.40;;;;;;;14.57;75.90;100217.64;110187;1277;22432;-59
2023/10/07 05:51:22;;;;;;;13.80;1.50;;;;;;;14.60;75.97;100217.90;110223;1277;22166;-60
2023/10/07 05:53:53;;;;;;;10.20;1.60;;;;;;;14.62;75.88;100216.77;110131;1271;22240;-58
2023/10/07 05:56:23;;;;;;;9.60;1.50;;;;;;;14.63;75.96;100216.52;110156;1277;22315;-60
2023/10/07 05:58:54;;;;;;;7.30;1.30;;;;;;;14.65;75.96;100219.39;110177;1277;22283;-58
2023/10/07 06:01:25;;;;;;;11.00;1.50;;;;;;;14.66;75.98;100217.04;110179;1271;22376;-58
2023/10/07 06:04:00;;;;;;;10.50;1.40;;;;;;;14.68;75.78;100212.91;110150;1271;22339;-58
2023/10/07 06:06:31;;;;;;;8.10;1.70;;;;;;;14.69;75.98;100217.14;110167;1271;22443;-58
2023/10/07 06:09:03;;;;;;;8.90;1.60;;;;;;;14.71;75.99;100218.16;110164;1270;23314;-60
2023/10/07 06:11:34;;;;;;;9.60;1.60;;;;;;;14.73;75.94;100223.02;110128;1271;23932;-59
2023/10/07 06:14:06;;;;;;;11.80;1.20;;;;;;;14.74;75.93;100229.88;110105;1270;23346;-55
2023/10/07 06:16:37;;;;;;;8.20;1.40;;;;;;;14.76;76.01;100228.25;110053;1269;23424;-58
2023/10/07 06:19:09;;;;;;;9.20;1.30;;;;;;;14.75;75.84;100228.19;110030;1271;22176;-60
2023/10/07 06:21:50;;;;;;;14.00;1.80;;;;;;;14.75;75.89;100233.10;110237;1271;22303;-60
2023/10/07 06:24:32;;;;;;;12.10;1.60;;;;;;;14.76;75.98;100242.35;110010;1274;22382;-61
2023/10/07 06:27:11;;;;;;;8.50;1.50;;;;;;;14.77;76.03;100249.97;110126;1270;23288;-59
2023/10/07 06:29:43;;;;;;;8.60;1.20;;;;;;;14.79;76.16;100255.08;110124;1270;22227;-60
2023/10/07 06:32:23;;;;;;;8.10;1.30;;;;;;;14.82;76.28;100251.81;110131;1271;22231;-60
2023/10/07 06:34:56;;;;;;;11.20;1.60;;;;;;;14.84;76.31;100255.39;110129;1264;22337;-58
2023/10/07 06:37:29;;;;;;;9.80;1.30;;;;;;;14.85;76.36;100256.63;110147;1265;22189;-59
2023/10/07 06:40:12;;;;;;;8.70;1.40;;;;;;;14.86;76.41;100251.77;110144;1271;22325;-59
2023/10/07 06:42:44;;;;;;;13.30;1.60;;;;;;;14.87;76.43;100257.65;110135;1270;22360;-61
2023/10/07 06:45:17;;;;;;;8.70;1.80;;;;;;;14.88;76.50;100253.05;110217;1276;22379;-61
2023/10/07 06:47:48;;;;;;;9.60;1.50;;;;;;;14.91;76.70;100251.98;110127;1271;22974;-61
2023/10/07 06:50:26;;;;;;;8.60;1.40;;;;;;;14.94;76.73;100250.83;110104;1271;22316;-61
2023/10/07 06:52:57;;;;;;;9.10;1.20;;;;;;;14.98;76.89;100247.95;110039;1271;22359;-61
2023/10/07 06:55:35;;;;;;;9.50;1.50;;;;;;;15.02;76.88;100248.52;110127;1271;22229;-62
2023/10/07 06:58:06;;;;;;;5.00;1.10;;;;;;;15.06;77.05;100247.60;110170;1266;22228;-58
2023/10/07 07:00:47;;;;;;;8.60;1.40;;;;;;;15.09;77.21;100240.70;110176;1271;22936;-59
2023/10/07 07:03:18;;;;;;;7.60;1.20;;;;;;;15.15;77.39;100242.14;110186;1277;22148;-59
2023/10/07 07:05:49;;;;;;;9.60;1.60;;;;;;;15.21;77.45;100237.28;110243;1277;22322;-58
2023/10/07 07:08:22;;;;;;;10.20;1.40;;;;;;;15.31;77.51;100235.30;110126;1271;22518;-61
2023/10/07 07:10:56;;;;;;;13.50;1.40;;;;;;;15.43;77.70;100230.04;110127;1271;22371;-61
2023/10/07 07:13:27;;;;;;;10.80;1.50;;;;;;;15.54;77.80;100224.96;110129;1271;22923;-60
2023/10/07 07:16:06;;;;;;;9.00;1.20;;;;;;;15.67;77.83;100233.54;110154;1270;22333;-61
2023/10/07 07:18:40;;;;;;;7.20;1.10;;;;;;;15.79;77.72;100231.36;110167;1270;22244;-61
2023/10/07 07:21:31;;;;;;;5.40;0.90;;;;;;;15.96;77.73;100231.84;110172;1274;22465;-60
2023/10/07 07:24:02;;;;;;;7.50;0.80;;;;;;;16.20;77.58;100233.29;110174;1271;22245;-61
2023/10/07 07:26:34;;;;;;;7.00;1.20;;;;;;;16.41;77.18;100231.61;110172;1277;22336;-60
2023/10/07 07:29:05;;;;;;;8.40;0.80;;;;;;;16.57;76.84;100229.66;110120;1263;22125;-62
2023/10/07 07:31:38;;;;;;;5.80;1.20;;;;;;;16.72;76.20;100234.04;110128;1274;22170;-61
2023/10/07 07:34:20;;;;;;;14.40;3.70;;;;;;;16.87;76.07;100229.02;110151;1270;22319;-63
2023/10/07 07:36:59;;;;;;;18.90;6.00;;;;;;;16.98;75.78;100219.66;110021;1270;22183;-62
2023/10/07 07:39:31;;;;;;;9.30;1.80;;;;;;;17.07;75.64;100222.66;110118;1270;22430;-61
2023/10/07 07:42:16;;;;;;;9.50;1.80;;;;;;;17.16;75.38;100236.91;110172;1277;22371;-61
2023/10/07 07:44:57;;;;;;;8.60;1.40;;;;;;;17.27;75.06;100234.30;110100;1270;22413;-61
2023/10/07 07:47:31;;;;;;;9.30;2.30;;;;;;;17.39;74.75;100239.19;110154;1270;23127;-61
2023/10/07 07:50:07;;;;;;;14.20;4.00;;;;;;;17.49;74.58;100245.31;110202;1270;22760;-62
2023/10/07 07:52:39;;;;;;;24.90;8.80;;;;;;;17.59;73.97;100232.09;110167;1277;22183;-62
2023/10/07 07:55:14;;;;;;;6.60;1.10;;;;;;;17.67;73.95;100226.94;110230;1271;22278;-62
2023/10/07 07:57:45;;;;;;;17.60;4.30;;;;;;;17.76;73.67;100229.56;110193;1271;22943;-62
2023/10/07 08:00:20;;;;;;;8.40;2.00;;;;;;;17.87;73.27;100231.97;110174;1261;22178;-62
2023/10/07 08:02:52;;;;;;;18.20;5.00;;;;;;;17.96;72.96;100226.69;110174;1274;22159;-61
2023/10/07 08:05:25;;;;;;;7.00;1.10;;;;;;;18.03;72.92;100226.65;110172;1271;22196;-62
2023/10/07 08:07:55;;;;;;;6.70;1.20;;;;;;;18.07;72.54;100224.91;110186;1277;22301;-61
2023/10/07 08:10:28;;;;;;;4.90;0.70;;;;;;;18.11;72.41;100230.36;110176;1274;22209;-62
2023/10/07 08:12:59;;;;;;;5.40;1.30;;;;;;;18.15;72.34;100223.22;110125;1274;22426;-61
2023/10/07 08:15:38;;;;;;;8.00;1.20;;;;;;;18.19;71.94;100227.69;110167;1277;22190;-61
2023/10/07 08:18:28;;;;;;;6.70;1.30;;;;;;;18.22;71.83;100232.18;110171;1276;22292;-62
2023/10/07 08:21:07;;;;;;;6.10;0.80;;;;;;;18.26;71.82;100229.10;110130;1269;23097;-60
2023/10/07 08:23:40;;;;;;;5.10;0.80;;;;;;;18.31;71.89;100230.55;110176;1277;23314;-61
2023/10/07 08:26:12;;;;;;;4.30;0.80;;;;;;;18.38;71.81;100228.90;110174;1277;23204;-61
2023/10/07 08:28:46;;;;;;;6.90;0.90;;;;;;;18.44;71.72;100223.90;110143;1277;22288;-61
2023/10/07 08:31:19;;;;;;;4.70;0.90;;;;;;;18.51;71.71;100233.58;110131;1270;22351;-60
2023/10/07 08:34:03;;;;;;;7.10;1.20;;;;;;;18.57;71.62;100228.41;110106;1273;23021;-61
2023/10/07 08:36:36;;;;;;;6.30;0.70;;;;;;;18.63;71.33;100223.66;110146;1277;22206;-63
2023/10/07 08:39:09;;;;;;;4.80;0.90;;;;;;;18.67;71.16;100221.45;110144;1271;22288;-62
2023/10/07 08:41:40;;;;;;;6.70;0.50;;;;;;;18.71;71.11;100217.71;110112;1263;22213;-62
2023/10/07 08:44:15;;;;;;;5.20;0.70;;;;;;;18.75;71.10;100217.55;110171;1277;22270;-61
2023/10/07 08:46:52;;;;;;;5.90;0.90;;;;;;;18.80;70.84;100222.55;110159;1271;22193;-60
2023/10/07 08:49:25;;;;;;;7.30;0.80;;;;;;;18.85;70.85;100219.73;110240;1271;22173;-61
2023/10/07 08:51:57;;;;;;;4.80;0.90;;;;;;;18.90;70.94;100224.91;110164;1277;22204;-61
2023/10/07 08:54:31;;;;;;;4.00;0.80;;;;;;;18.94;70.56;100221.41;110155;1277;22941;-61
2023/10/07 08:57:09;;;;;;;5.20;0.80;;;;;;;18.98;70.40;100223.96;110163;1277;22490;-61
2023/10/07 08:59:40;;;;;;;8.20;0.80;;;;;;;19.00;70.31;100225.10;110154;1277;23337;-61
2023/10/07 09:02:23;;;;;;;8.70;1.20;;;;;;;19.03;70.53;100225.12;110120;1277;22381;-61
2023/10/07 09:04:53;;;;;;;10.50;1.80;;;;;;;19.05;70.61;100222.98;110141;1277;23251;-59
2023/10/07 09:07:30;;;;;;;6.20;1.00;;;;;;;19.07;70.51;100223.91;110122;1271;22206;-60
2023/10/07 09:10:10;;;;;;;6.40;1.10;;;;;;;19.08;70.47;100223.53;110041;1277;22158;-61
2023/10/07 09:12:46;;;;;;;7.20;1.20;;;;;;;19.09;70.40;100219.62;110166;1270;22633;-61
2023/10/07 09:15:25;;;;;;;4.30;0.80;;;;;;;19.11;70.50;100227.14;110173;1276;22231;-61
2023/10/07 09:18:03;;;;;;;6.00;1.00;;;;;;;19.12;70.16;100227.58;110256;1276;22197;-60
2023/10/07 09:20:43;;;;;;;5.40;0.70;;;;;;;19.11;69.73;100222.88;110182;1276;22209;-61
2023/10/07 09:23:19;;;;;;;5.70;1.00;;;;;;;19.10;69.85;100228.60;109797;1275;22663;-62
2023/10/07 09:25:53;;;;;;;10.70;1.00;;;;;;;19.09;69.91;100225.28;106065;1277;22657;-61
2023/10/07 09:28:31;;;;;;;8.20;1.30;;;;;;;19.10;70.19;100222.52;109681;1277;25472;-59
2023/10/07 09:31:06;;;;;;;7.10;0.90;;;;;;;19.12;70.12;100223.69;106033;1266;24417;-60
2023/10/07 09:33:41;;;;;;;6.50;1.10;;;;;;;19.13;69.94;100227.42;110103;1272;22318;-59
2023/10/07 09:36:33;;;;;;;8.60;1.10;;;;;;;19.14;69.77;100224.73;110167;1270;22324;-59
2023/10/07 09:39:34;;;;;;;7.10;0.90;;;;;;;19.13;69.64;100228.92;110143;1271;22381;-59
2023/10/07 09:42:25;;;;;;;7.50;1.10;;;;;;;19.11;69.61;100226.17;110178;1277;22180;-58
2023/10/07 09:45:16;;;;;;;10.20;1.00;;;;;;;19.09;69.55;100229.39;110130;1274;22243;-60
2023/10/07 09:47:48;;;;;;;5.70;0.80;;;;;;;19.08;69.52;100228.48;105972;1277;5411193;-59
2023/10/07 09:50:25;;;;;;;7.80;1.20;;;;;;;19.05;69.32;100226.56;110187;1271;22207;-59
2023/10/07 09:53:27;;;;;;;4.80;0.90;;;;;;;19.02;69.24;100219.41;110167;1261;22200;-60
2023/10/07 09:56:21;;;;;;;5.70;1.20;;;;;;;18.99;69.31;100220.80;110140;1278;22600;-60
2023/10/07 09:59:13;;;;;;;4.50;0.70;;;;;;;18.99;69.02;100220.96;110137;1277;22151;-59
2023/10/07 10:02:05;;;;;;;7.90;1.30;;;;;;;18.96;69.16;100223.52;110089;1277;22967;-60
2023/10/07 10:04:54;;;;;;;4.40;0.90;;;;;;;18.96;69.13;100226.34;110042;1277;22192;-60
2023/10/07 10:07:57;;;;;;;5.30;0.80;;;;;;;18.96;69.12;100235.00;110159;1277;22904;-60
2023/10/07 10:10:32;;;;;;;8.30;1.50;;;;;;;18.96;69.09;100231.96;110109;1271;23368;-61
2023/10/07 10:13:07;;;;;;;7.20;1.00;;;;;;;18.96;69.33;100228.88;110097;1274;22438;-59
2023/10/07 10:15:51;;;;;;;6.30;1.10;;;;;;;18.96;69.31;100228.20;110167;1276;23226;-61
2023/10/07 10:18:38;;;;;;;8.30;1.50;;;;;;;18.97;69.61;100228.77;110127;1273;23170;-61
2023/10/07 10:21:12;;;;;;;6.30;0.80;;;;;;;18.97;69.38;100238.43;110069;1270;22401;-61
2023/10/07 10:23:44;;;;;;;5.60;1.00;;;;;;;18.95;68.92;100233.42;110145;1270;23445;-64
2023/10/07 10:26:22;;;;;;;5.10;0.90;;;;;;;18.94;68.98;100233.02;110109;1273;22632;-63
2023/10/07 10:29:03;;;;;;;9.60;1.10;;;;;;;18.93;68.57;100234.21;110116;1271;22962;-64
2023/10/07 10:31:35;;;;;;;9.00;1.20;;;;;;;18.91;68.33;100240.77;110190;1271;23612;-65
2023/10/07 10:34:08;;;;;;;6.40;1.20;;;;;;;18.90;68.45;100239.35;110139;1276;22406;-64
2023/10/07 10:36:43;;;;;;;7.90;1.40;;;;;;;18.90;68.52;100250.21;110183;1274;23616;-63
2023/10/07 10:39:22;;;;;;;8.20;1.30;;;;;;;18.85;68.16;100243.48;110182;1271;23463;-64
2023/10/07 10:41:53;;;;;;;5.60;1.10;;;;;;;18.81;68.22;100228.89;110179;1274;22222;-63
2023/10/07 10:44:24;;;;;;;9.30;1.50;;;;;;;18.79;68.25;100232.36;110157;1274;22368;-65
2023/10/07 10:46:57;;;;;;;6.60;1.20;;;;;;;18.79;68.32;100233.23;110035;1271;22387;-63
2023/10/07 10:49:30;;;;;;;6.10;1.00;;;;;;;18.80;68.41;100240.80;110122;1270;22156;-62
2023/10/07 10:52:04;;;;;;;5.90;0.70;;;;;;;18.80;68.40;100246.81;110123;1274;23038;-65
2023/10/07 10:54:39;;;;;;;5.00;0.80;;;;;;;18.77;68.21;100247.31;110130;1271;22335;-65
2023/10/07 10:57:19;;;;;;;6.60;0.80;;;;;;;18.71;68.24;100243.63;110094;1270;22308;-64
2023/10/07 10:59:50;;;;;;;8.40;1.00;;;;;;;18.66;68.42;100245.45;110076;1271;23077;-64
2023/10/07 11:02:21;;;;;;;4.70;0.70;;;;;;;18.62;68.65;100248.45;110141;1270;22911;-64
2023/10/07 11:04:54;;;;;;;6.00;1.30;;;;;;;18.61;68.91;100240.90;110149;1274;22206;-63
2023/10/07 11:07:48;;;;;;;6.50;1.20;;;;;;;18.64;69.12;100224.72;110142;1274;22191;-64
2023/10/07 11:10:22;;;;;;;9.10;1.40;;;;;;;18.69;68.82;100225.79;110143;1277;22367;-64
2023/10/07 11:12:56;;;;;;;7.40;0.80;;;;;;;18.73;68.76;100226.95;110136;1277;22628;-65
2023/10/07 11:15:29;;;;;;;6.40;0.80;;;;;;;18.74;68.53;100226.06;110157;1277;22231;-65
2023/10/07 11:18:11;;;;;;;9.90;0.90;;;;;;;18.74;68.35;100211.21;110128;1271;22480;-65
2023/10/07 11:20:45;;;;;;;4.90;1.00;;;;;;;18.74;68.67;100204.05;110162;1274;22384;-66
2023/10/07 11:23:19;;;;;;;9.50;0.80;;;;;;;18.77;68.67;100195.73;110136;1277;22243;-65
2023/10/07 11:25:51;;;;;;;5.00;1.00;;;;;;;18.81;68.85;100195.21;110160;1277;23135;-69
2023/10/07 11:28:23;;;;;;;6.40;0.90;;;;;;;18.87;68.91;100201.43;110175;1277;22217;-66
2023/10/07 11:30:55;;;;;;;6.50;0.90;;;;;;;18.92;68.82;100199.19;110148;1277;23641;-66
2023/10/07 11:33:25;;;;;;;5.30;0.70;;;;;;;18.95;68.82;100210.79;110194;1273;22364;-69
2023/10/07 11:36:02;;;;;;;6.40;0.90;;;;;;;18.97;68.93;100209.77;110196;1271;22996;-66
2023/10/07 11:38:33;;;;;;;5.60;0.80;;;;;;;18.98;68.87;100205.38;110145;1277;22225;-67
2023/10/07 11:41:06;;;;;;;2.90;0.70;;;;;;;19.00;68.75;100204.58;110140;1277;22146;-67
2023/10/07 11:43:44;;;;;;;5.30;0.70;;;;;;;18.98;68.64;100215.57;110145;1277;22202;-66
2023/10/07 11:46:16;;;;;;;3.00;0.60;;;;;;;18.95;68.58;100219.02;110158;1266;22414;-65
2023/10/07 11:48:47;;;;;;;5.40;0.80;;;;;;;18.91;68.76;100216.55;110141;1277;22924;-65
2023/10/07 11:51:18;;;;;;;3.50;0.70;;;;;;;18.86;68.90;100216.73;110145;1277;22264;-66
2023/10/07 11:53:49;;;;;;;6.90;0.90;;;;;;;18.79;68.89;100212.93;110158;1277;22272;-66
2023/10/07 11:56:21;;;;;;;3.90;0.60;;;;;;;18.73;69.12;100215.91;110145;1277;22199;-65
2023/10/07 11:58:52;;;;;;;6.20;0.90;;;;;;;18.68;69.34;100213.95;110167;1277;22233;-66